createdAt,value
2018-07-20T00:01:08.377Z,71.30
2018-07-20T00:03:35.923Z,71.40
2018-07-20T00:06:03.527Z,71.70
2018-07-20T00:08:31.382Z,72.70
2018-07-20T00:10:59.033Z,72.50
2018-07-20T00:13:26.579Z,72.90
2018-07-20T00:15:54.197Z,73.40
2018-07-20T00:18:21.774Z,73.20
2018-07-20T00:20:49.358Z,73.00
2018-07-20T00:23:16.974Z,73.10
2018-07-20T00:25:44.589Z,73.10
2018-07-20T00:28:12.413Z,73.80
2018-07-20T00:30:40.023Z,74.50
2018-07-20T00:33:07.601Z,74.50
2018-07-20T00:35:35.165Z,75.20
2018-07-20T00:38:02.756Z,74.70
2018-07-20T00:40:30.321Z,74.20
2018-07-20T00:42:57.874Z,73.80
2018-07-20T00:45:25.485Z,74.00
2018-07-20T00:47:53.081Z,74.30
2018-07-20T00:50:20.702Z,73.90
2018-07-20T00:52:48.278Z,73.90
2018-07-20T00:55:15.860Z,74.60
2018-07-20T00:57:43.705Z,74.90
2018-07-20T01:00:11.275Z,74.70
2018-07-20T01:02:38.889Z,74.60
2018-07-20T01:05:06.659Z,74.90
2018-07-20T01:07:34.962Z,75.20
2018-07-20T01:10:02.733Z,76.20
2018-07-20T01:12:30.357Z,75.40
2018-07-20T01:14:57.962Z,75.80
2018-07-20T01:17:25.561Z,76.00
2018-07-20T01:19:53.266Z,76.50
2018-07-20T01:22:20.890Z,76.70
2018-07-20T01:24:48.545Z,77.20
2018-07-20T01:27:16.521Z,77.40
2018-07-20T01:29:44.161Z,77.40
2018-07-20T01:32:11.748Z,77.10
2018-07-20T01:34:39.334Z,77.10
2018-07-20T01:37:06.941Z,77.00
2018-07-20T01:39:34.566Z,77.40
2018-07-20T01:42:02.199Z,77.30
2018-07-20T01:44:29.784Z,78.20
2018-07-20T01:49:24.925Z,78.50
2018-07-20T01:51:52.503Z,78.50
2018-07-20T01:54:20.078Z,78.50
2018-07-20T01:56:47.676Z,79.00
2018-07-20T01:59:15.245Z,79.30
2018-07-20T02:01:42.825Z,79.80
2018-07-20T02:04:10.385Z,80.00
2018-07-20T02:06:38.641Z,80.00
2018-07-20T02:09:08.315Z,80.00
2018-07-20T02:11:36.045Z,79.90
2018-07-20T02:14:03.753Z,79.70
2018-07-20T02:16:31.358Z,79.40
2018-07-20T02:18:58.949Z,79.50
2018-07-20T02:21:26.561Z,79.10
2018-07-20T02:23:54.199Z,79.10
2018-07-20T02:26:21.809Z,79.00
2018-07-20T02:28:49.395Z,79.20
2018-07-20T02:31:17.078Z,79.30
2018-07-20T02:36:12.178Z,79.40
2018-07-20T02:38:39.747Z,79.70
2018-07-20T02:41:07.342Z,79.40
2018-07-20T02:43:35.108Z,79.50
2018-07-20T02:46:02.732Z,79.30
2018-07-20T02:48:30.317Z,79.90
2018-07-20T02:53:25.722Z,79.20
2018-07-20T02:55:53.354Z,79.10
2018-07-20T02:58:21.009Z,79.20
2018-07-20T03:00:48.565Z,79.20
2018-07-20T03:03:16.202Z,79.70
2018-07-20T03:05:43.931Z,79.70
2018-07-20T03:08:11.549Z,79.80
2018-07-20T03:10:39.289Z,79.60
2018-07-20T03:13:07.045Z,80.20
2018-07-20T03:15:34.670Z,79.70
2018-07-20T03:18:02.341Z,79.60
2018-07-20T03:20:29.909Z,80.00
2018-07-20T03:22:57.494Z,80.40
2018-07-20T03:25:25.057Z,81.30
2018-07-20T03:27:53.473Z,81.60
2018-07-20T03:30:21.068Z,81.80
2018-07-20T03:32:49.332Z,82.50
2018-07-20T03:35:17.273Z,82.10
2018-07-20T03:37:44.855Z,82.50
2018-07-20T03:40:15.130Z,82.50
2018-07-20T03:42:42.795Z,82.90
2018-07-20T03:45:10.405Z,82.80
2018-07-20T03:47:38.678Z,83.00
2018-07-20T03:50:07.034Z,83.10
2018-07-20T03:52:34.630Z,82.60
2018-07-20T03:55:02.654Z,82.70
2018-07-20T03:57:30.242Z,82.60
2018-07-20T03:59:57.837Z,82.40
2018-07-20T04:02:25.483Z,82.50
2018-07-20T04:04:53.027Z,82.70
2018-07-20T04:07:20.613Z,83.00
2018-07-20T04:09:48.213Z,82.80
2018-07-20T04:12:15.821Z,83.10
2018-07-20T04:14:43.431Z,83.30
2018-07-20T04:17:10.989Z,83.00
2018-07-20T04:19:38.737Z,83.10
2018-07-20T04:22:06.331Z,83.60
2018-07-20T04:24:33.989Z,83.70
2018-07-20T04:27:01.585Z,84.00
2018-07-20T04:29:30.518Z,84.30
2018-07-20T04:31:58.114Z,84.70
2018-07-20T04:34:25.779Z,84.40
2018-07-20T04:36:53.504Z,84.70
2018-07-20T04:39:21.117Z,84.70
2018-07-20T04:41:48.718Z,84.80
2018-07-20T04:44:16.349Z,85.10
2018-07-20T04:46:44.386Z,85.30
2018-07-20T04:49:12.380Z,85.50
2018-07-20T04:51:40.081Z,85.30
2018-07-20T04:54:07.685Z,85.80
2018-07-20T04:56:35.293Z,86.00
2018-07-20T04:59:02.883Z,86.40
2018-07-20T05:01:30.500Z,86.60
2018-07-20T05:03:58.258Z,86.40
2018-07-20T05:06:26.042Z,86.50
2018-07-20T05:08:53.626Z,86.40
2018-07-20T05:11:21.239Z,86.50
2018-07-20T05:13:48.895Z,86.70
2018-07-20T05:16:16.973Z,87.00
2018-07-20T05:18:44.569Z,86.70
2018-07-20T05:21:12.203Z,86.30
2018-07-20T05:23:40.352Z,86.10
2018-07-20T05:26:07.994Z,86.10
2018-07-20T05:28:35.770Z,85.70
2018-07-20T05:31:03.601Z,85.60
2018-07-20T05:33:32.210Z,85.30
2018-07-20T05:35:59.788Z,85.40
2018-07-20T05:38:27.358Z,85.50
2018-07-20T05:40:54.930Z,85.30
2018-07-20T05:43:22.526Z,85.50
2018-07-20T05:45:50.138Z,84.50
2018-07-20T05:48:17.742Z,84.10
2018-07-20T05:50:45.474Z,83.50
2018-07-20T05:53:13.080Z,83.40
2018-07-20T05:55:40.702Z,83.20
2018-07-20T05:58:08.284Z,82.90
2018-07-20T06:00:35.878Z,82.40
2018-07-20T06:03:03.430Z,81.70
2018-07-20T06:05:31.046Z,80.30
2018-07-20T06:07:58.616Z,80.80
2018-07-20T06:10:29.105Z,79.50
2018-07-20T06:12:56.685Z,77.80
2018-07-20T06:15:24.263Z,77.40
2018-07-20T06:17:51.852Z,77.60
2018-07-20T06:20:19.413Z,77.00
2018-07-20T06:22:47.153Z,77.80
2018-07-20T06:25:14.757Z,76.20
2018-07-20T06:27:42.314Z,75.90
2018-07-20T06:30:09.926Z,76.00
2018-07-20T06:32:37.543Z,76.00
2018-07-20T06:35:05.145Z,76.00
2018-07-20T06:37:33.123Z,75.80
2018-07-20T06:40:00.754Z,75.80
2018-07-20T06:42:28.320Z,75.60
2018-07-20T06:44:55.889Z,75.10
2018-07-20T06:47:23.449Z,74.00
2018-07-20T06:49:51.099Z,73.50
2018-07-20T06:52:19.192Z,72.90
2018-07-20T06:54:47.374Z,72.30
2018-07-20T06:57:14.985Z,73.30
2018-07-20T06:59:43.038Z,73.20
2018-07-20T07:02:10.577Z,72.50
2018-07-20T07:04:38.298Z,72.20
2018-07-20T07:07:06.497Z,71.60
2018-07-20T07:09:34.120Z,71.30
2018-07-20T07:12:01.709Z,71.80
2018-07-20T07:14:29.299Z,71.90
2018-07-20T07:19:24.361Z,70.70
2018-07-20T07:21:51.950Z,70.90
2018-07-20T07:24:19.546Z,70.90
2018-07-20T07:26:47.474Z,71.20
2018-07-20T07:29:15.124Z,71.90
2018-07-20T07:31:42.670Z,72.40
2018-07-20T07:34:10.506Z,71.50
2018-07-20T07:36:38.070Z,71.30
2018-07-20T07:39:08.284Z,70.40
2018-07-20T07:41:35.873Z,70.30
2018-07-20T07:44:04.430Z,70.50
2018-07-20T07:46:32.094Z,70.80
2018-07-20T07:48:59.725Z,69.10
2018-07-20T07:51:27.486Z,68.50
2018-07-20T07:53:55.881Z,68.10
2018-07-20T07:56:23.483Z,67.50
2018-07-20T07:58:51.070Z,68.20
2018-07-20T08:01:18.881Z,68.30
2018-07-20T08:03:46.450Z,67.90
2018-07-20T08:06:14.123Z,68.00
2018-07-20T08:08:41.694Z,67.40
2018-07-20T08:11:09.285Z,66.30
2018-07-20T08:13:39.758Z,66.60
2018-07-20T08:16:07.369Z,66.80
2018-07-20T08:18:34.984Z,67.40
2018-07-20T08:21:02.821Z,67.50
2018-07-20T08:23:30.449Z,68.00
2018-07-20T08:28:25.642Z,66.90
2018-07-20T08:30:53.249Z,66.50
2018-07-20T08:35:48.346Z,66.10
2018-07-20T08:38:15.916Z,66.00
2018-07-20T08:40:43.513Z,66.00
2018-07-20T08:43:14.029Z,65.10
2018-07-20T08:45:41.636Z,65.00
2018-07-20T08:48:09.215Z,64.50
2018-07-20T08:50:36.836Z,63.20
2018-07-20T08:53:04.666Z,63.10
2018-07-20T08:55:32.637Z,63.40
2018-07-20T08:58:00.213Z,63.60
2018-07-20T09:00:27.778Z,62.60
2018-07-20T09:02:55.953Z,62.10
2018-07-20T09:05:23.617Z,62.10
2018-07-20T09:07:51.437Z,61.50
2018-07-20T09:10:21.820Z,60.90
2018-07-20T09:12:49.386Z,60.40
2018-07-20T09:15:16.978Z,59.60
2018-07-20T09:17:44.592Z,59.90
2018-07-20T09:20:12.206Z,60.00
2018-07-20T09:22:39.950Z,58.90
2018-07-20T09:25:10.209Z,58.50
2018-07-20T09:27:37.765Z,58.60
2018-07-20T09:30:05.406Z,57.60
2018-07-20T09:32:32.981Z,57.30
2018-07-20T09:35:00.546Z,57.60
2018-07-20T09:37:28.179Z,57.70
2018-07-20T09:39:55.793Z,57.40
2018-07-20T09:42:23.485Z,56.90
2018-07-20T09:44:51.097Z,54.60
2018-07-20T09:47:18.741Z,54.30
2018-07-20T09:49:46.569Z,54.80
2018-07-20T09:52:14.162Z,55.60
2018-07-20T09:54:41.746Z,54.50
2018-07-20T09:57:10.022Z,55.00
2018-07-20T09:59:37.665Z,55.40
2018-07-20T10:02:05.550Z,54.80
2018-07-20T10:04:33.137Z,54.10
2018-07-20T10:07:00.758Z,53.20
2018-07-20T10:09:28.317Z,52.30
2018-07-20T10:11:55.918Z,52.10
2018-07-20T10:14:23.497Z,51.10
2018-07-20T10:16:51.094Z,50.20
2018-07-20T10:19:18.825Z,50.50
2018-07-20T10:21:46.409Z,48.80
2018-07-20T10:24:13.974Z,48.70
2018-07-20T10:26:41.532Z,48.60
2018-07-20T10:29:09.108Z,47.90
2018-07-20T10:31:36.780Z,47.40
2018-07-20T10:34:04.459Z,48.50
2018-07-20T10:36:32.095Z,47.90
2018-07-20T10:38:59.714Z,49.20
2018-07-20T10:41:27.297Z,49.20
2018-07-20T10:43:55.129Z,47.80
2018-07-20T10:46:22.845Z,47.30
2018-07-20T10:48:50.397Z,48.00
2018-07-20T10:51:18.010Z,46.80
2018-07-20T10:53:45.601Z,47.00
2018-07-20T10:56:13.197Z,45.40
2018-07-20T10:58:40.801Z,46.60
2018-07-20T11:01:08.350Z,45.90
2018-07-20T11:03:35.982Z,44.90
2018-07-20T11:06:03.590Z,44.70
2018-07-20T11:08:31.185Z,44.50
2018-07-20T11:10:58.889Z,45.50
2018-07-20T11:13:26.605Z,44.90
2018-07-20T11:15:54.190Z,44.80
2018-07-20T11:18:21.789Z,45.00
2018-07-20T11:20:52.242Z,45.10
2018-07-20T11:23:20.810Z,44.50
2018-07-20T11:25:48.793Z,44.70
2018-07-20T11:28:16.374Z,45.20
2018-07-20T11:30:44.006Z,44.00
2018-07-20T11:33:11.606Z,44.80
2018-07-20T11:35:39.177Z,46.00
2018-07-20T11:38:06.778Z,44.10
2018-07-20T11:40:34.341Z,44.70
2018-07-20T11:43:01.955Z,44.30
2018-07-20T11:45:29.541Z,43.50
2018-07-20T11:47:57.205Z,43.50
2018-07-20T11:50:24.793Z,43.50
2018-07-20T11:52:52.397Z,43.40
2018-07-20T11:55:20.109Z,43.70
2018-07-20T11:57:47.721Z,43.80
2018-07-20T12:00:15.326Z,43.50
2018-07-20T12:02:42.910Z,43.80
2018-07-20T12:05:10.521Z,43.60
2018-07-20T12:07:38.084Z,43.50
2018-07-20T12:10:05.770Z,41.90
2018-07-20T12:12:33.353Z,42.40
2018-07-20T12:15:00.946Z,41.50
2018-07-20T12:17:28.529Z,42.20
2018-07-20T12:19:56.208Z,41.30
2018-07-20T12:22:23.798Z,40.80
2018-07-20T12:24:51.378Z,41.40
2018-07-20T12:27:18.966Z,41.90
2018-07-20T12:29:46.625Z,42.80
2018-07-20T12:32:14.206Z,41.80
2018-07-20T12:34:41.819Z,42.50
2018-07-20T12:37:09.390Z,42.30
2018-07-20T12:39:37.629Z,42.10
2018-07-20T12:42:05.968Z,42.60
2018-07-20T12:44:33.596Z,42.40
2018-07-20T12:47:01.236Z,42.00
2018-07-20T12:49:29.420Z,42.50
2018-07-20T12:51:57.433Z,41.80
2018-07-20T12:54:25.013Z,41.00
2018-07-20T12:56:53.658Z,39.50
2018-07-20T12:59:21.250Z,39.20
2018-07-20T13:01:49.722Z,38.30
2018-07-20T13:04:18.778Z,37.50
2018-07-20T13:06:46.349Z,37.70
2018-07-20T13:09:13.929Z,37.40
2018-07-20T13:11:42.121Z,38.80
2018-07-20T13:14:10.522Z,39.00
2018-07-20T13:16:38.081Z,38.90
2018-07-20T13:19:05.709Z,37.80
2018-07-20T13:21:33.273Z,38.00
2018-07-20T13:24:00.894Z,36.60
2018-07-20T13:26:28.465Z,37.20
2018-07-20T13:28:56.063Z,37.30
2018-07-20T13:31:23.846Z,37.30
2018-07-20T13:33:51.478Z,35.80
2018-07-20T13:36:21.352Z,37.10
2018-07-20T13:38:49.053Z,35.00
2018-07-20T13:41:16.613Z,34.00
2018-07-20T13:43:44.222Z,34.00
2018-07-20T13:46:11.970Z,34.40
2018-07-20T13:48:39.552Z,34.30
2018-07-20T13:51:07.192Z,33.40
2018-07-20T13:53:34.778Z,34.80
2018-07-20T13:56:02.433Z,33.60
2018-07-20T13:58:30.037Z,34.20
2018-07-20T14:00:57.625Z,32.90
2018-07-20T14:03:25.208Z,31.10
2018-07-20T14:05:52.804Z,31.40
2018-07-20T14:08:20.402Z,30.90
2018-07-20T14:10:48.013Z,29.90
2018-07-20T14:13:15.573Z,29.90
2018-07-20T14:16:13.940Z,29.40
2018-07-20T14:18:41.834Z,28.90
2018-07-20T14:23:38.215Z,28.20
2018-07-20T14:26:05.906Z,28.10
2018-07-20T14:28:36.457Z,28.50
2018-07-20T14:33:31.627Z,26.40
2018-07-20T14:35:59.261Z,26.60
2018-07-20T14:38:27.552Z,25.90
2018-07-20T14:40:55.714Z,27.00
2018-07-20T14:43:23.518Z,26.10
2018-07-20T14:45:51.219Z,26.20
2018-07-20T14:48:19.186Z,26.40
2018-07-20T14:50:47.484Z,27.00
2018-07-20T14:53:17.609Z,28.60
2018-07-20T14:55:45.321Z,29.60
2018-07-20T14:58:12.850Z,31.50
2018-07-20T15:00:40.637Z,29.90
2018-07-20T15:03:08.301Z,30.40
2018-07-20T15:05:35.921Z,31.00
2018-07-20T15:08:04.018Z,33.00
2018-07-20T15:10:31.650Z,34.20
2018-07-20T15:12:59.296Z,34.80
2018-07-20T15:15:26.910Z,36.00
2018-07-20T15:17:54.578Z,35.80
2018-07-20T15:20:22.189Z,36.50
2018-07-20T15:22:50.806Z,37.10
2018-07-20T15:25:19.285Z,37.50
2018-07-20T15:27:47.710Z,37.60
2018-07-20T15:30:16.609Z,37.60
2018-07-20T15:32:44.191Z,37.60
2018-07-20T15:35:12.117Z,37.70
2018-07-20T15:37:39.728Z,38.30
2018-07-20T15:40:07.382Z,37.80
2018-07-20T15:42:35.026Z,37.70
2018-07-20T15:45:02.674Z,37.80
2018-07-20T15:47:30.402Z,38.60
2018-07-20T15:49:57.884Z,38.50
2018-07-20T15:54:52.997Z,38.40
2018-07-20T15:57:20.573Z,38.20
2018-07-20T15:59:48.836Z,39.10
2018-07-20T16:04:47.157Z,38.60
2018-07-20T16:07:14.854Z,39.10
2018-07-20T16:09:42.425Z,39.20
2018-07-20T16:12:10.048Z,39.70
2018-07-20T16:14:37.721Z,39.60
2018-07-20T16:17:05.345Z,40.10
2018-07-20T16:19:32.989Z,40.00
2018-07-20T16:22:00.648Z,39.90
2018-07-20T16:24:28.226Z,40.40
2018-07-20T16:26:55.864Z,41.00
2018-07-20T16:29:23.428Z,40.30
2018-07-20T16:31:51.016Z,40.80
2018-07-20T16:34:18.597Z,40.70
2018-07-20T16:36:46.198Z,41.00
2018-07-20T16:39:13.769Z,42.50
2018-07-20T16:41:41.374Z,42.70
2018-07-20T16:44:09.254Z,47.30
2018-07-20T16:46:37.197Z,49.80
2018-07-20T16:49:04.865Z,50.70
2018-07-20T16:51:32.482Z,51.00
2018-07-20T16:54:00.040Z,50.20
2018-07-20T16:56:27.638Z,51.20
2018-07-20T16:58:55.281Z,53.10
2018-07-20T17:01:22.865Z,54.00
2018-07-20T17:03:50.753Z,54.00
2018-07-20T17:06:18.445Z,54.20
2018-07-20T17:08:46.005Z,53.90
2018-07-20T17:11:13.769Z,54.50
2018-07-20T17:13:45.225Z,55.70
2018-07-20T17:16:13.015Z,57.40
2018-07-20T17:18:42.433Z,58.70
2018-07-20T17:21:11.126Z,59.50
2018-07-20T17:23:38.748Z,60.60
2018-07-20T17:26:08.357Z,61.40
2018-07-20T17:28:36.831Z,61.50
2018-07-20T17:31:04.449Z,61.30
2018-07-20T17:33:32.047Z,60.70
2018-07-20T17:35:59.633Z,60.60
2018-07-20T17:38:27.321Z,61.00
2018-07-20T17:40:54.893Z,61.10
2018-07-20T17:43:22.537Z,61.30
2018-07-20T17:45:50.181Z,60.60
2018-07-20T17:48:17.773Z,61.30
2018-07-20T17:50:46.405Z,61.00
2018-07-20T17:53:14.984Z,60.60
2018-07-20T17:55:42.637Z,60.90
2018-07-20T17:58:10.201Z,60.50
2018-07-20T18:00:37.768Z,59.90
2018-07-20T18:03:05.399Z,59.50
2018-07-20T18:05:32.949Z,59.80
2018-07-20T18:08:00.901Z,58.90
2018-07-20T18:10:28.600Z,58.80
2018-07-20T18:12:56.257Z,58.90
2018-07-20T18:15:23.953Z,58.30
2018-07-20T18:17:51.599Z,59.00
2018-07-20T18:20:19.189Z,59.10
2018-07-20T18:22:46.814Z,59.10
2018-07-20T18:25:15.005Z,57.60
2018-07-20T18:27:42.623Z,58.90
2018-07-20T18:30:10.749Z,58.50
2018-07-20T18:32:38.411Z,57.70
2018-07-20T18:35:06.020Z,56.70
2018-07-20T18:37:33.613Z,56.30
2018-07-20T18:40:01.455Z,55.80
2018-07-20T18:42:29.098Z,57.10
2018-07-20T18:44:56.755Z,55.90
2018-07-20T18:47:24.373Z,56.20
2018-07-20T18:49:52.062Z,56.00
2018-07-20T18:52:23.566Z,57.10
2018-07-20T18:54:51.676Z,57.50
2018-07-20T18:57:19.427Z,57.30
2018-07-20T18:59:47.508Z,57.20
2018-07-20T19:02:15.122Z,57.30
2018-07-20T19:04:47.420Z,57.80
2018-07-20T19:07:17.353Z,57.10
2018-07-20T19:09:45.037Z,57.30
2018-07-20T19:12:12.639Z,58.30
2018-07-20T19:14:40.284Z,58.30
2018-07-20T19:17:07.891Z,59.20
2018-07-20T19:19:35.483Z,60.00
2018-07-20T19:22:03.121Z,60.80
2018-07-20T19:24:30.730Z,61.30
2018-07-20T19:26:58.417Z,61.70
2018-07-20T19:29:26.009Z,62.60
2018-07-20T19:31:53.654Z,63.60
2018-07-20T19:34:21.274Z,64.00
2018-07-20T19:36:48.874Z,64.60
2018-07-20T19:39:20.130Z,65.90
2018-07-20T19:41:47.805Z,66.70
2018-07-20T19:44:15.378Z,67.70
2018-07-20T19:46:42.975Z,69.20
2018-07-20T19:49:10.682Z,70.10
2018-07-20T19:51:38.271Z,70.60
2018-07-20T19:54:05.922Z,70.90
2018-07-20T19:56:33.768Z,71.00
2018-07-20T19:59:01.403Z,71.50
2018-07-20T20:01:28.982Z,71.40
2018-07-20T20:03:56.830Z,71.90
2018-07-20T20:06:24.414Z,72.00
2018-07-20T20:08:52.143Z,71.50
2018-07-20T20:11:19.994Z,71.30
2018-07-20T20:13:49.260Z,71.40
2018-07-20T20:16:17.157Z,70.90
2018-07-20T20:18:44.814Z,70.90
2018-07-20T20:21:12.399Z,70.90
2018-07-20T20:23:40.002Z,70.60
2018-07-20T20:26:07.595Z,70.60
2018-07-20T20:28:35.721Z,70.10
2018-07-20T20:31:03.369Z,70.10
2018-07-20T20:33:31.121Z,69.40
2018-07-20T20:35:58.704Z,69.80
2018-07-20T20:38:26.285Z,69.30
2018-07-20T20:40:53.917Z,69.80
2018-07-20T20:43:21.546Z,69.70
2018-07-20T20:45:49.114Z,69.90
2018-07-20T20:48:16.706Z,70.10
2018-07-20T20:50:44.328Z,70.00
2018-07-20T20:53:11.910Z,69.80
2018-07-20T20:55:39.482Z,69.50
2018-07-20T20:58:07.149Z,69.80
2018-07-20T21:00:34.736Z,69.40
2018-07-20T21:03:02.342Z,70.00
2018-07-20T21:05:29.993Z,69.20
2018-07-20T21:07:57.698Z,69.30
2018-07-20T21:10:25.297Z,69.30
2018-07-20T21:12:53.016Z,68.40
2018-07-20T21:15:20.649Z,67.80
2018-07-20T21:17:48.250Z,67.30
2018-07-20T21:20:15.846Z,67.50
2018-07-20T21:22:43.555Z,67.30
2018-07-20T21:25:11.237Z,66.90
2018-07-20T21:27:38.801Z,67.40
2018-07-20T21:30:06.568Z,66.30
2018-07-20T21:32:34.581Z,66.40
2018-07-20T21:35:02.322Z,66.30
2018-07-20T21:37:29.938Z,66.10
2018-07-20T21:39:57.561Z,66.50
2018-07-20T21:42:25.326Z,65.20
2018-07-20T21:44:52.926Z,64.50
2018-07-20T21:47:20.537Z,64.20
2018-07-20T21:49:48.160Z,64.00
2018-07-20T21:52:15.776Z,64.10
2018-07-20T21:54:46.241Z,64.90
2018-07-20T21:57:17.732Z,63.70
2018-07-20T21:59:45.391Z,63.70
2018-07-20T22:02:12.981Z,62.80
2018-07-20T22:04:40.574Z,63.50
2018-07-20T22:07:08.161Z,63.80
2018-07-20T22:09:35.756Z,64.50
2018-07-20T22:12:03.347Z,65.10
2018-07-20T22:14:30.930Z,65.30
2018-07-20T22:16:58.480Z,65.40
2018-07-20T22:19:26.176Z,65.30
2018-07-20T22:21:53.761Z,66.00
2018-07-20T22:24:21.333Z,65.70
2018-07-20T22:26:48.900Z,66.10
2018-07-20T22:29:16.510Z,66.70
2018-07-20T22:31:44.052Z,66.40
2018-07-20T22:34:11.605Z,65.50
2018-07-20T22:36:39.256Z,65.70
2018-07-20T22:39:09.681Z,64.90
2018-07-20T22:41:37.302Z,65.30
2018-07-20T22:44:04.921Z,64.70
2018-07-20T22:46:32.494Z,64.90
2018-07-20T22:49:00.077Z,64.80
2018-07-20T22:51:28.018Z,64.50
2018-07-20T22:53:55.591Z,64.40
2018-07-20T22:56:23.189Z,65.00
2018-07-20T22:58:50.792Z,65.70
2018-07-20T23:01:18.566Z,64.70
2018-07-20T23:03:46.159Z,64.80
2018-07-20T23:06:13.728Z,65.20
2018-07-20T23:08:41.958Z,64.70
2018-07-20T23:11:09.549Z,64.10
2018-07-20T23:13:37.279Z,63.60
2018-07-20T23:16:05.054Z,63.90
2018-07-20T23:18:32.620Z,63.80
2018-07-20T23:21:00.301Z,63.90
2018-07-20T23:23:28.023Z,63.80
2018-07-20T23:25:55.630Z,64.50
2018-07-20T23:30:51.197Z,65.60
2018-07-20T23:33:18.881Z,66.20
2018-07-20T23:35:46.472Z,66.30
2018-07-20T23:38:14.077Z,66.70
2018-07-20T23:40:41.892Z,66.90
2018-07-20T23:43:09.953Z,66.20
2018-07-20T23:45:37.521Z,66.00
2018-07-20T23:48:05.327Z,66.00
2018-07-20T23:50:32.920Z,66.30
2018-07-20T23:53:00.514Z,66.60
2018-07-20T23:55:28.097Z,66.50
2018-07-20T23:57:55.721Z,66.60
